Time,TemperatureF,DewpointF,PressureIn,WindDirection,WindDirectionDegrees,WindSpeedMPH,WindSpeedGustMPH,Humidity,HourlyPrecipIn,Conditions,Clouds,dailyrainin,SoftwareType,DateUTC
2013-05-15 00:12:00,65.0,56.0,30.15,SSW,208,0.0,1.0,73,0.00,,,0.00,weatherlink.com 1.10,2013-05-15 04:12:00,
2013-05-15 00:27:00,64.8,56.0,30.15,SW,220,0.0,1.0,74,0.00,,,0.00,weatherlink.com 1.10,2013-05-15 04:27:00,
2013-05-15 00:42:00,64.7,56.0,30.15,SW,236,0.0,1.0,74,0.00,,,0.00,weatherlink.com 1.10,2013-05-15 04:42:00,
2013-05-15 00:57:00,64.9,56.0,30.15,SSW,207,0.0,1.0,73,0.00,,,0.00,weatherlink.com 1.10,2013-05-15 04:57:00,
2013-05-15 01:12:00,65.2,56.0,30.15,East,91,0.0,1.0,72,0.00,,,0.00,weatherlink.com 1.10,2013-05-15 05:12:00,
2013-05-15 01:27:00,65.4,56.0,30.15,SSW,195,0.0,1.0,71,0.00,,,0.00,weatherlink.com 1.10,2013-05-15 05:27:00,
2013-05-15 01:43:00,65.6,56.0,30.14,NNW,332,0.0,4.0,70,0.00,,,0.00,weatherlink.com 1.10,2013-05-15 05:43:00,
2013-05-15 01:58:00,65.7,56.0,30.14,SW,219,0.0,2.0,70,0.00,,,0.00,weatherlink.com 1.10,2013-05-15 05:58:00,
2013-05-15 02:13:00,65.3,55.0,30.14,WSW,248,0.0,1.0,70,0.00,,,0.00,weatherlink.com 1.10,2013-05-15 06:13:00,
2013-05-15 02:28:00,64.9,55.0,30.13,SE,141,0.0,1.0,71,0.00,,,0.00,weatherlink.com 1.10,2013-05-15 06:28:00,
2013-05-15 02:43:00,63.8,55.0,30.13,SE,141,0.0,0.0,73,0.00,,,0.00,weatherlink.com 1.10,2013-05-15 06:43:00,
2013-05-15 02:58:00,62.9,55.0,30.14,South,169,0.0,1.0,76,0.00,,,0.00,weatherlink.com 1.10,2013-05-15 06:58:00,
2013-05-15 03:13:00,61.5,55.0,30.14,South,169,0.0,0.0,79,0.00,,,0.00,weatherlink.com 1.10,2013-05-15 07:13:00,
2013-05-15 03:28:00,60.3,54.0,30.13,South,169,0.0,0.0,81,0.00,,,0.00,weatherlink.com 1.10,2013-05-15 07:28:00,
2013-05-15 03:43:00,60.3,55.0,30.13,South,169,0.0,0.0,82,0.00,,,0.00,weatherlink.com 1.10,2013-05-15 07:43:00,
2013-05-15 04:06:00,59.8,55.0,30.13,South,169,0.0,0.0,83,0.00,,,0.00,weatherlink.com 1.10,2013-05-15 08:06:00,
2013-05-15 04:13:00,59.5,54.0,30.13,South,169,0.0,0.0,83,0.00,,,0.00,weatherlink.com 1.10,2013-05-15 08:13:00,
2013-05-15 04:28:00,61.0,55.0,30.14,WSW,240,0.0,1.0,80,0.00,,,0.00,weatherlink.com 1.10,2013-05-15 08:28:00,
2013-05-15 04:43:00,62.3,55.0,30.14,NNE,18,0.0,2.0,77,0.00,,,0.00,weatherlink.com 1.10,2013-05-15 08:43:00,
2013-05-15 04:58:00,63.5,55.0,30.14,SSE,167,0.0,5.0,74,0.00,,,0.00,weatherlink.com 1.10,2013-05-15 08:58:00,
2013-05-15 05:13:00,63.8,55.0,30.14,South,189,0.0,3.0,73,0.00,,,0.00,weatherlink.com 1.10,2013-05-15 09:13:00,
2013-05-15 05:28:00,63.7,55.0,30.14,SW,232,0.0,2.0,73,0.00,,,0.00,weatherlink.com 1.10,2013-05-15 09:28:00,
2013-05-15 05:43:00,63.3,55.0,30.14,SW,230,0.0,1.0,74,0.00,,,0.00,weatherlink.com 1.10,2013-05-15 09:43:00,
2013-05-15 05:58:00,62.4,55.0,30.14,WSW,240,0.0,0.0,76,0.00,,,0.00,weatherlink.com 1.10,2013-05-15 09:58:00,
2013-05-15 06:13:00,61.0,54.0,30.15,WSW,240,0.0,0.0,79,0.00,,,0.00,weatherlink.com 1.10,2013-05-15 10:13:00,
2013-05-15 06:28:00,60.0,54.0,30.15,WSW,240,0.0,0.0,81,0.00,,,0.00,weatherlink.com 1.10,2013-05-15 10:28:00,
2013-05-15 06:43:00,60.9,54.0,30.15,WNW,293,0.0,0.0,79,0.00,,,0.00,weatherlink.com 1.10,2013-05-15 10:43:00,
2013-05-15 06:58:00,60.6,54.0,30.15,WNW,293,0.0,0.0,80,0.00,,,0.00,weatherlink.com 1.10,2013-05-15 10:58:00,
2013-05-15 07:13:00,60.2,54.0,30.15,WNW,293,0.0,0.0,81,0.00,,,0.00,weatherlink.com 1.10,2013-05-15 11:13:00,
2013-05-15 07:43:00,60.0,55.0,30.16,WNW,293,0.0,0.0,84,0.00,,,0.00,weatherlink.com 1.10,2013-05-15 11:43:00,
2013-05-15 08:13:00,62.1,56.0,30.16,WSW,249,0.0,1.0,80,0.00,,,0.00,weatherlink.com 1.10,2013-05-15 12:13:00,
2013-05-15 08:28:00,63.4,56.0,30.16,East,96,0.0,2.0,78,0.00,,,0.00,weatherlink.com 1.10,2013-05-15 12:28:00,
2013-05-15 08:43:00,64.3,57.0,30.17,NNE,29,0.0,1.0,76,0.00,,,0.00,weatherlink.com 1.10,2013-05-15 12:43:00,
2013-05-15 08:58:00,65.7,57.0,30.18,WNW,291,0.0,2.0,73,0.00,,,0.00,weatherlink.com 1.10,2013-05-15 12:58:00,
2013-05-15 09:13:00,67.1,57.0,30.18,WSW,250,1.0,3.0,71,0.00,,,0.00,weatherlink.com 1.10,2013-05-15 13:13:00,
2013-05-15 09:28:00,68.1,57.0,30.18,NNE,20,1.0,3.0,68,0.00,,,0.00,weatherlink.com 1.10,2013-05-15 13:28:00,
2013-05-15 09:43:00,69.2,56.0,30.18,ENE,75,0.0,6.0,64,0.00,,,0.00,weatherlink.com 1.10,2013-05-15 13:43:00,
2013-05-15 09:58:00,70.2,56.0,30.18,SSW,204,0.0,6.0,62,0.00,,,0.00,weatherlink.com 1.10,2013-05-15 13:58:00,
2013-05-15 10:14:00,71.0,57.0,30.17,East,97,1.0,4.0,61,0.00,,,0.00,weatherlink.com 1.10,2013-05-15 14:14:00,
2013-05-15 10:29:00,71.9,57.0,30.17,NNE,13,1.0,6.0,60,0.00,,,0.00,weatherlink.com 1.10,2013-05-15 14:29:00,
2013-05-15 10:59:00,74.0,58.0,30.16,NNE,19,1.0,6.0,57,0.00,,,0.00,weatherlink.com 1.10,2013-05-15 14:59:00,
2013-05-15 11:14:00,75.0,57.0,30.16,NNE,26,3.0,9.0,54,0.00,,,0.00,weatherlink.com 1.10,2013-05-15 15:14:00,
2013-05-15 11:29:00,76.2,57.0,30.16,NNW,345,4.0,9.0,52,0.00,,,0.00,weatherlink.com 1.10,2013-05-15 15:29:00,
2013-05-15 11:44:00,78.1,58.0,30.16,NNE,13,1.0,6.0,51,0.00,,,0.00,weatherlink.com 1.10,2013-05-15 15:44:00,
2013-05-15 11:59:00,78.2,57.0,30.16,NNE,20,4.0,8.0,49,0.00,,,0.00,weatherlink.com 1.10,2013-05-15 15:59:00,
2013-05-15 12:14:00,80.1,59.0,30.15,NNE,23,0.0,6.0,48,0.00,,,0.00,weatherlink.com 1.10,2013-05-15 16:14:00,
2013-05-15 12:29:00,80.7,58.0,30.15,SSW,212,0.0,7.0,46,0.00,,,0.00,weatherlink.com 1.10,2013-05-15 16:29:00,
2013-05-15 12:44:00,81.8,59.0,30.14,North,1,4.0,5.0,46,0.00,,,0.00,weatherlink.com 1.10,2013-05-15 16:44:00,
2013-05-15 12:59:00,82.5,58.0,30.14,NNE,19,0.0,7.0,44,0.00,,,0.00,weatherlink.com 1.10,2013-05-15 16:59:00,
2013-05-15 13:14:00,82.9,58.0,30.13,NNE,22,3.0,7.0,43,0.00,,,0.00,weatherlink.com 1.10,2013-05-15 17:14:00,
2013-05-15 13:29:00,83.0,58.0,30.13,NNE,30,2.0,6.0,43,0.00,,,0.00,weatherlink.com 1.10,2013-05-15 17:29:00,
2013-05-15 13:44:00,83.8,59.0,30.12,ESE,107,1.0,4.0,43,0.00,,,0.00,weatherlink.com 1.10,2013-05-15 17:44:00,
2013-05-15 13:59:00,85.2,58.0,30.11,NNE,29,0.0,3.0,39,0.00,,,0.00,weatherlink.com 1.10,2013-05-15 17:59:00,
2013-05-15 14:14:00,85.0,57.0,30.11,SW,231,0.0,0.0,39,0.00,,,0.00,weatherlink.com 1.10,2013-05-15 18:14:00,
2013-05-15 14:29:00,85.5,58.0,30.10,NE,39,0.0,0.0,39,0.00,,,0.00,weatherlink.com 1.10,2013-05-15 18:29:00,
2013-05-15 14:44:00,85.6,57.0,30.09,West,273,0.0,0.0,38,0.00,,,0.00,weatherlink.com 1.10,2013-05-15 18:44:00,
2013-05-15 14:59:00,85.9,57.0,30.09,NNE,16,0.0,0.0,37,0.00,,,0.00,weatherlink.com 1.10,2013-05-15 18:59:00,
2013-05-15 15:14:00,86.4,57.0,30.08,ESE,115,0.0,0.0,37,0.00,,,0.00,weatherlink.com 1.10,2013-05-15 19:14:00,
2013-05-15 15:45:00,87.5,57.0,30.07,WNW,284,0.0,0.0,36,0.00,,,0.00,weatherlink.com 1.10,2013-05-15 19:45:00,
2013-05-15 16:00:00,86.5,57.0,30.06,SE,139,0.0,0.0,37,0.00,,,0.00,weatherlink.com 1.10,2013-05-15 20:00:00,
2013-05-15 16:15:00,86.9,57.0,30.06,NNE,18,0.0,0.0,36,0.00,,,0.00,weatherlink.com 1.10,2013-05-15 20:15:00,
2013-05-15 16:45:00,87.7,57.0,30.04,West,259,0.0,0.0,35,0.00,,,0.00,weatherlink.com 1.10,2013-05-15 20:45:00,
2013-05-15 17:00:00,87.0,55.0,30.04,NNW,330,0.0,0.0,34,0.00,,,0.00,weatherlink.com 1.10,2013-05-15 21:00:00,
2013-05-15 17:15:00,87.4,56.0,30.03,SE,138,0.0,0.0,34,0.00,,,0.00,weatherlink.com 1.10,2013-05-15 21:15:00,
2013-05-15 17:30:00,86.9,56.0,30.03,NNE,17,0.0,0.0,35,0.00,,,0.00,weatherlink.com 1.10,2013-05-15 21:30:00,
2013-05-15 17:45:00,86.8,57.0,30.03,WSW,246,0.0,0.0,36,0.00,,,0.00,weatherlink.com 1.10,2013-05-15 21:45:00,
2013-05-15 18:00:00,86.5,56.0,30.02,West,269,0.0,0.0,35,0.00,,,0.00,weatherlink.com 1.10,2013-05-15 22:00:00,
2013-05-15 18:30:00,87.2,56.0,30.02,SSE,162,0.0,0.0,34,0.00,,,0.00,weatherlink.com 1.10,2013-05-15 22:30:00,
2013-05-15 19:00:00,85.9,57.0,30.02,SW,221,0.0,0.0,37,0.00,,,0.00,weatherlink.com 1.10,2013-05-15 23:00:00,
2013-05-15 19:15:00,84.3,57.0,30.02,WSW,246,0.0,0.0,39,0.00,,,0.00,weatherlink.com 1.10,2013-05-15 23:15:00,
2013-05-15 19:30:00,83.7,57.0,30.01,NNE,14,0.0,0.0,40,0.00,,,0.00,weatherlink.com 1.10,2013-05-15 23:30:00,
2013-05-15 19:45:00,82.6,58.0,30.01,NNW,339,0.0,0.0,43,0.00,,,0.00,weatherlink.com 1.10,2013-05-15 23:45:00,
2013-05-15 20:00:00,81.6,60.0,30.01,NNW,339,0.0,0.0,48,0.00,,,0.00,weatherlink.com 1.10,2013-05-16 00:00:00,
2013-05-15 20:15:00,79.2,59.0,30.02,NNW,339,0.0,0.0,50,0.00,,,0.00,weatherlink.com 1.10,2013-05-16 00:15:00,
2013-05-15 20:30:00,77.3,60.0,30.02,NNW,339,0.0,0.0,55,0.00,,,0.00,weatherlink.com 1.10,2013-05-16 00:30:00,
2013-05-15 20:45:00,74.9,59.0,30.02,NNW,337,0.0,0.0,59,0.00,,,0.00,weatherlink.com 1.10,2013-05-16 00:45:00,
2013-05-15 21:15:00,71.5,59.0,30.03,NNW,337,0.0,0.0,66,0.00,,,0.00,weatherlink.com 1.10,2013-05-16 01:15:00,
2013-05-15 22:00:00,68.3,59.0,30.04,NNW,337,0.0,0.0,73,0.00,,,0.00,weatherlink.com 1.10,2013-05-16 02:00:00,
2013-05-15 22:15:00,67.5,59.0,30.04,NNW,338,0.0,0.0,75,0.00,,,0.00,weatherlink.com 1.10,2013-05-16 02:15:00,
2013-05-15 22:30:00,66.8,59.0,30.05,NNW,337,0.0,0.0,77,0.00,,,0.00,weatherlink.com 1.10,2013-05-16 02:30:00,
2013-05-15 22:45:00,66.2,60.0,30.05,NNW,338,0.0,0.0,79,0.00,,,0.00,weatherlink.com 1.10,2013-05-16 02:45:00,
2013-05-15 23:00:00,65.4,59.0,30.05,NNW,337,0.0,0.0,79,0.00,,,0.00,weatherlink.com 1.10,2013-05-16 03:00:00,
2013-05-15 23:15:00,64.7,59.0,30.04,NNW,338,0.0,0.0,81,0.00,,,0.00,weatherlink.com 1.10,2013-05-16 03:15:00,
2013-05-15 23:30:00,64.3,58.0,30.04,NNW,338,0.0,0.0,81,0.00,,,0.00,weatherlink.com 1.10,2013-05-16 03:30:00,
2013-05-15 23:45:00,63.9,58.0,30.04,NNW,338,0.0,0.0,82,0.00,,,0.00,weatherlink.com 1.10,2013-05-16 03:45:00,